Greenock, United Kingdom
Current Conditions -  °F | °C
As of 11:20 PM on Monday 20 Oct 2014 (Local Time) from EGPF Reporting Station
Light Rain Light Rain  
Wind Chill: 55°   Ceiling: 1600
Heat Index: 55°   Visibility: 4mi
Dew Point: 52°   Wind: 18mph
Humidity: 88%   Direction: 200°SSW
Pressure: 29.38"   Gusts: NA
Location:  55.95°N, 4.76°W
Report Text: EGPF 202220Z AUTO 20016KT 7000 -RA OVC016/// //////CB 13/11 Q0995
Loading
Personal Weather Stations






























Interactive Weather Map
Tropical Storm Tracking
New forecast layout! Learn more

10-Day Weather Forecast

Advertisements
Track Severe Weather on mobile